Terminal Aerodrome Forecast
Issued by NWS Blacksburg, VA

Home | Current Version | Previous Version | Text Only | Print | Product List | Glossary On
Versions: 1 2 3 4 5 6 7 8 9 10 11 12 13 14 15 16 17 18 19 20 21 22 23 24 25 26
000
FTUS41 KRNK 022340
TAFLYH
TAF
KLYH 022340Z 0300/0324 22009G18KT 5SM SHRA VCTS BKN035CB OVC110
      TEMPO 0300/0303 VRB15G25KT 1SM +TSRA BR OVC025CB
     FM030500 22005KT 6SM -SHRA BR BKN050 OVC250
     FM030800 00000KT 4SM BR VCSH OVC015
      TEMPO 0309/0313 2SM BR SCT004 OVC007
     FM031500 29008KT P6SM SCT025 OVC050=

USA.gov is the U.S. government's official web portal to all federal, state and local government web resources and services.